Time;durP1;ratioP1;P1;durP2;ratioP2;P2;SDS_P1;SDS_P2;PMS_P1;PMS_P2;Temp;Humidity;BMP_temperature;BMP_pressure;BME280_temperature;BME280_humidity;BME280_pressure;Samples;Min_cycle;Max_cycle;Signal;HPM_P1;HPM_P2
2022/09/17 01:40:44;;;;;;;16.88;2.92;;;9.50;99.90;;;;;;5073904;28;20475;-68
2022/09/17 01:43:32;;;;;;;12.98;2.45;;;9.50;99.90;;;;;;4986824;28;20599;-71
2022/09/17 01:46:14;;;;;;;16.92;3.38;;;9.40;99.90;;;;;;4986860;28;20069;-69
2022/09/17 01:48:44;;;;;;;21.58;2.95;;;9.40;99.90;;;;;;4987849;28;20438;-67
2022/09/17 01:51:15;;;;;;;16.38;2.40;;;9.40;99.90;;;;;;4987308;28;20133;-68
2022/09/17 01:54:04;;;;;;;10.18;2.70;;;9.40;99.90;;;;;;4984907;28;20185;-68
2022/09/17 01:56:39;;;;;;;19.85;3.40;;;9.40;99.90;;;;;;4981400;28;20054;-68
2022/09/17 01:59:23;;;;;;;18.25;3.33;;;9.40;99.90;;;;;;4951047;28;20386;-69
2022/09/17 02:01:53;;;;;;;15.73;2.75;;;9.40;99.90;;;;;;4986357;28;20050;-69
2022/09/17 02:04:50;;;;;;;15.70;2.95;;;9.40;99.90;;;;;;4982568;28;20053;-67
2022/09/17 02:07:22;;;;;;;9.30;2.30;;;9.50;99.90;;;;;;4980864;28;20061;-69
2022/09/17 02:09:59;;;;;;;16.30;2.47;;;9.40;99.90;;;;;;4985571;28;20046;-68
2022/09/17 02:12:32;;;;;;;16.95;2.53;;;9.40;99.90;;;;;;4953221;28;20153;-69
2022/09/17 02:15:01;;;;;;;14.63;2.33;;;9.50;99.90;;;;;;4984183;28;20125;-70
2022/09/17 02:17:44;;;;;;;11.27;2.50;;;9.40;99.90;;;;;;4986217;28;20109;-68
2022/09/17 02:20:11;;;;;;;12.07;2.72;;;9.50;99.90;;;;;;5028045;28;20057;-69
2022/09/17 02:22:45;;;;;;;11.90;2.38;;;9.50;99.90;;;;;;5064362;28;20036;-70
2022/09/17 02:25:27;;;;;;;15.55;2.47;;;9.50;99.90;;;;;;5064064;28;20049;-70
2022/09/17 02:28:02;;;;;;;10.88;2.17;;;9.50;99.90;;;;;;5064425;28;20044;-68
2022/09/17 02:30:28;;;;;;;13.45;2.20;;;9.50;99.90;;;;;;5060818;28;20036;-69
2022/09/17 02:32:54;;;;;;;15.07;2.78;;;9.50;99.90;;;;;;5063541;28;20054;-69
2022/09/17 02:35:20;;;;;;;10.88;2.45;;;9.50;99.90;;;;;;5065592;28;20040;-70
2022/09/17 02:37:46;;;;;;;11.25;1.92;;;9.50;99.90;;;;;;5066551;28;20044;-71
2022/09/17 02:40:15;;;;;;;13.30;2.25;;;9.50;99.90;;;;;;5081004;28;20534;-73
2022/09/17 02:42:52;;;;;;;10.45;2.17;;;9.50;99.90;;;;;;5083808;28;20051;-72
2022/09/17 02:45:37;;;;;;;10.77;2.40;;;9.50;99.90;;;;;;5084199;28;20048;-71
2022/09/17 02:48:02;;;;;;;11.82;2.42;;;9.50;99.90;;;;;;5086989;28;20076;-73
2022/09/17 02:50:28;;;;;;;8.93;2.00;;;9.50;99.90;;;;;;5079836;28;20118;-71
2022/09/17 02:53:30;;;;;;;9.98;2.28;;;9.50;99.90;;;;;;5062324;28;20336;-72
2022/09/17 02:55:58;;;;;;;10.60;1.90;;;9.50;99.90;;;;;;5088143;28;20028;-71
2022/09/17 02:59:05;;;;;;;13.32;2.28;;;9.50;99.90;;;;;;5085464;28;20040;-71
2022/09/17 03:01:39;;;;;;;16.58;2.58;;;9.60;99.90;;;;;;5083209;28;20173;-72
2022/09/17 03:04:08;;;;;;;11.45;2.40;;;9.60;99.90;;;;;;5082852;28;20032;-72
2022/09/17 03:06:34;;;;;;;11.80;2.05;;;9.60;99.90;;;;;;5085372;28;20051;-72
2022/09/17 03:08:59;;;;;;;13.50;2.28;;;9.70;99.90;;;;;;5082687;28;20036;-70
2022/09/17 03:11:26;;;;;;;11.80;2.00;;;9.70;99.90;;;;;;5083960;28;20028;-71
2022/09/17 03:13:51;;;;;;;8.38;2.05;;;9.70;99.90;;;;;;5085214;28;20044;-71
2022/09/17 03:16:17;;;;;;;11.25;2.10;;;9.70;99.90;;;;;;5085835;28;20032;-71
2022/09/17 03:18:42;;;;;;;10.60;2.30;;;9.80;99.90;;;;;;5079795;28;20040;-72
2022/09/17 03:21:08;;;;;;;13.73;2.10;;;9.90;99.90;;;;;;5084044;28;20131;-71
2022/09/17 03:23:34;;;;;;;7.82;1.77;;;9.90;99.90;;;;;;5085067;28;20039;-72
2022/09/17 03:25:59;;;;;;;13.43;2.70;;;9.90;99.90;;;;;;5083716;28;20032;-71
2022/09/17 03:28:25;;;;;;;14.13;2.30;;;9.90;99.90;;;;;;5066512;28;20550;-70
2022/09/17 03:30:51;;;;;;;12.18;1.90;;;9.90;99.90;;;;;;5080211;28;20134;-70
2022/09/17 03:33:18;;;;;;;10.88;1.92;;;9.80;99.90;;;;;;5077016;28;20526;-72
2022/09/17 03:35:44;;;;;;;7.88;1.77;;;9.80;99.90;;;;;;5085374;28;20047;-71
2022/09/17 03:38:10;;;;;;;8.73;1.77;;;9.70;99.90;;;;;;5083893;28;20458;-71
2022/09/17 03:40:36;;;;;;;12.85;1.90;;;9.60;99.90;;;;;;5081978;28;20711;-72
2022/09/17 03:43:02;;;;;;;8.20;1.73;;;9.60;99.90;;;;;;5085271;28;20043;-72
2022/09/17 03:45:27;;;;;;;10.00;2.03;;;9.50;99.90;;;;;;5083225;28;20048;-71
2022/09/17 03:47:53;;;;;;;10.43;1.98;;;9.60;99.90;;;;;;5081584;28;20063;-71
2022/09/17 03:50:18;;;;;;;5.68;1.42;;;9.50;99.90;;;;;;5059639;28;20044;-70
2022/09/17 03:52:44;;;;;;;7.88;1.70;;;9.40;99.90;;;;;;5082976;28;21965;-73
2022/09/17 03:55:10;;;;;;;6.65;1.40;;;9.40;99.90;;;;;;5065464;28;21703;-71
2022/09/17 03:57:36;;;;;;;11.48;1.98;;;;;;;;;;5085656;28;20119;-70
2022/09/17 04:00:03;;;;;;;8.98;1.67;;;9.50;99.90;;;;;;5079421;28;20052;-70
2022/09/17 04:02:28;;;;;;;7.53;1.80;;;9.30;99.90;;;;;;5078539;28;20047;-71
2022/09/17 04:04:54;;;;;;;11.57;2.00;;;9.20;99.90;;;;;;5081716;28;20129;-71
2022/09/17 04:07:19;;;;;;;12.25;1.95;;;9.20;99.90;;;;;;5081074;28;20119;-69
2022/09/17 04:09:45;;;;;;;6.72;1.50;;;9.10;99.90;;;;;;5080890;28;20471;-70
2022/09/17 04:12:10;;;;;;;8.38;2.00;;;9.10;99.90;;;;;;5084838;28;20036;-70
2022/09/17 04:14:36;;;;;;;11.93;2.10;;;9.10;99.90;;;;;;5083604;28;20040;-71
2022/09/17 04:17:02;;;;;;;6.65;1.65;;;9.00;99.90;;;;;;5080372;28;20675;-70
2022/09/17 04:19:27;;;;;;;12.02;2.20;;;9.00;99.90;;;;;;5081967;28;20177;-71
2022/09/17 04:21:53;;;;;;;11.23;2.13;;;9.00;99.90;;;;;;5086383;28;20113;-71
2022/09/17 04:24:19;;;;;;;7.78;1.58;;;9.10;99.90;;;;;;5085595;28;20040;-68
2022/09/17 04:26:44;;;;;;;12.05;1.90;;;9.10;99.90;;;;;;5084595;28;20118;-73
2022/09/17 04:29:10;;;;;;;11.88;1.98;;;9.00;99.90;;;;;;5086518;28;21892;-70
2022/09/17 04:31:36;;;;;;;10.13;2.28;;;9.10;99.90;;;;;;5084460;28;20748;-70
2022/09/17 04:34:01;;;;;;;13.95;2.00;;;9.10;99.90;;;;;;5086783;28;20387;-71
2022/09/17 04:36:27;;;;;;;10.05;1.95;;;9.10;99.90;;;;;;5086590;28;20123;-71
2022/09/17 04:38:52;;;;;;;15.80;2.17;;;9.10;99.90;;;;;;5084604;28;20047;-71
2022/09/17 04:41:18;;;;;;;12.13;2.28;;;9.10;99.90;;;;;;5088221;28;20402;-72
2022/09/17 04:43:44;;;;;;;10.90;2.10;;;9.10;99.90;;;;;;5086519;28;20122;-73
2022/09/17 04:46:09;;;;;;;8.50;2.05;;;9.20;99.90;;;;;;5084720;28;20036;-72
2022/09/17 04:48:36;;;;;;;12.88;2.03;;;9.20;99.90;;;;;;5086017;28;20058;-70
2022/09/17 04:51:02;;;;;;;12.20;1.70;;;9.10;99.90;;;;;;5081361;28;20040;-71
2022/09/17 04:53:27;;;;;;;9.95;2.17;;;9.20;99.90;;;;;;5086401;28;20040;-70
2022/09/17 04:55:53;;;;;;;8.63;1.80;;;9.20;99.90;;;;;;5082601;28;20040;-71
2022/09/17 04:58:19;;;;;;;12.98;1.90;;;9.40;99.90;;;;;;5087859;28;20097;-71
2022/09/17 05:00:45;;;;;;;11.07;1.88;;;;;;;;;;5084763;28;20033;-70
2022/09/17 05:03:10;;;;;;;11.98;2.28;;;9.30;99.90;;;;;;5083275;28;20044;-70
2022/09/17 05:05:36;;;;;;;7.50;1.60;;;9.30;99.90;;;;;;5086272;28;20043;-71
2022/09/17 05:08:02;;;;;;;8.20;2.05;;;9.30;99.90;;;;;;5081041;28;20042;-71
2022/09/17 05:10:28;;;;;;;12.40;2.15;;;9.30;99.90;;;;;;5085559;28;20044;-71
2022/09/17 05:12:55;;;;;;;13.25;2.65;;;9.30;99.90;;;;;;5067859;28;20036;-71
2022/09/17 05:15:21;;;;;;;10.15;1.80;;;9.30;99.90;;;;;;5088444;28;20032;-70
2022/09/17 05:17:47;;;;;;;13.40;2.03;;;9.40;99.90;;;;;;5080997;28;20040;-74
2022/09/17 05:20:14;;;;;;;15.50;2.15;;;9.50;99.90;;;;;;5063901;28;20040;-72
2022/09/17 05:22:45;;;;;;;10.88;1.90;;;9.70;99.90;;;;;;5083738;28;20430;-71
2022/09/17 05:25:13;;;;;;;9.18;1.75;;;9.60;99.90;;;;;;5089399;28;20394;-72
2022/09/17 05:27:39;;;;;;;13.30;2.20;;;9.80;99.90;;;;;;5086298;28;20414;-72
2022/09/17 05:30:05;;;;;;;10.70;1.95;;;9.80;99.90;;;;;;5084855;28;20517;-72
2022/09/17 05:32:31;;;;;;;13.70;2.03;;;9.90;99.90;;;;;;5063761;28;20490;-72
2022/09/17 05:34:57;;;;;;;11.73;1.95;;;9.90;99.90;;;;;;5085145;28;20117;-71
2022/09/17 05:37:22;;;;;;;8.38;1.58;;;9.90;99.90;;;;;;5082342;28;20085;-70
2022/09/17 05:39:48;;;;;;;9.85;1.70;;;9.90;99.90;;;;;;5083321;28;20048;-70
2022/09/17 05:42:14;;;;;;;10.70;2.22;;;;;;;;;;5082839;28;20054;-69
2022/09/17 05:44:40;;;;;;;10.50;2.00;;;10.20;99.90;;;;;;5087497;28;20044;-70
2022/09/17 05:47:05;;;;;;;11.00;2.13;;;10.20;99.90;;;;;;5082010;28;20040;-70
2022/09/17 05:49:31;;;;;;;8.65;1.42;;;10.20;99.90;;;;;;5085474;28;20044;-70
2022/09/17 05:51:57;;;;;;;9.30;1.70;;;10.20;99.90;;;;;;5068321;28;20040;-70
2022/09/17 05:54:22;;;;;;;10.10;1.70;;;10.20;99.90;;;;;;5084740;28;20039;-69
2022/09/17 05:56:52;;;;;;;8.38;1.52;;;10.20;99.90;;;;;;5087322;28;20047;-71
2022/09/17 05:59:17;;;;;;;11.07;1.55;;;10.30;99.90;;;;;;5085121;28;20052;-71
2022/09/17 06:01:43;;;;;;;7.68;1.90;;;10.40;99.90;;;;;;5081566;28;20036;-71
2022/09/17 06:04:10;;;;;;;10.48;2.05;;;10.80;99.90;;;;;;5079230;28;20044;-69
2022/09/17 06:06:37;;;;;;;8.07;1.60;;;11.20;99.90;;;;;;5081881;28;20074;-69
2022/09/17 06:09:04;;;;;;;11.98;2.00;;;11.60;99.90;;;;;;5084182;28;20561;-69
2022/09/17 06:11:29;;;;;;;8.65;1.67;;;12.00;99.90;;;;;;5081465;28;20040;-69
2022/09/17 06:13:55;;;;;;;6.15;1.30;;;12.30;99.90;;;;;;5086129;28;20040;-70
2022/09/17 06:16:22;;;;;;;9.75;2.00;;;12.70;99.90;;;;;;5080788;28;20546;-69
2022/09/17 06:18:49;;;;;;;7.40;1.70;;;12.90;99.90;;;;;;5083054;28;20036;-71
2022/09/17 06:21:16;;;;;;;7.40;1.40;;;13.10;99.90;;;;;;5084575;28;20520;-71
2022/09/17 06:23:42;;;;;;;4.85;1.30;;;13.20;99.90;;;;;;5086411;28;20044;-70
2022/09/17 06:26:08;;;;;;;4.75;1.48;;;13.40;99.90;;;;;;5084915;28;20161;-70
2022/09/17 06:28:34;;;;;;;8.00;1.60;;;13.80;99.90;;;;;;5086213;28;20038;-69
2022/09/17 06:31:01;;;;;;;8.20;1.50;;;14.30;99.90;;;;;;5081590;28;20044;-71
2022/09/17 06:33:28;;;;;;;8.60;1.48;;;14.80;99.90;;;;;;5078153;28;20047;-68
2022/09/17 06:36:02;;;;;;;5.85;1.50;;;15.10;99.90;;;;;;5076208;28;20062;-69
2022/09/17 06:38:30;;;;;;;5.53;1.52;;;15.30;99.90;;;;;;5062233;28;20095;-69
2022/09/17 06:40:56;;;;;;;7.18;1.80;;;15.20;99.90;;;;;;5085095;28;20047;-69
2022/09/17 06:43:22;;;;;;;8.60;1.65;;;15.20;99.90;;;;;;5085024;28;20557;-69
2022/09/17 06:45:59;;;;;;;7.97;1.90;;;14.50;99.90;;;;;;5080502;28;20407;-70
2022/09/17 06:48:26;;;;;;;6.05;1.85;;;13.80;99.90;;;;;;5083915;28;20057;-71
2022/09/17 06:50:53;;;;;;;6.07;1.70;;;13.70;99.90;;;;;;5082881;28;20048;-70
2022/09/17 06:53:20;;;;;;;8.80;1.90;;;13.40;99.90;;;;;;5085933;28;20068;-68
2022/09/17 06:55:46;;;;;;;8.10;1.83;;;13.70;99.90;;;;;;5083915;28;20032;-68
2022/09/17 06:58:12;;;;;;;9.55;1.50;;;14.20;99.90;;;;;;5084916;28;20365;-69
2022/09/17 07:00:38;;;;;;;6.07;1.50;;;14.70;99.90;;;;;;5079929;28;20558;-69
2022/09/17 07:03:03;;;;;;;7.07;1.70;;;15.10;99.90;;;;;;5087500;28;20036;-68
2022/09/17 07:05:31;;;;;;;11.07;1.58;;;15.10;99.90;;;;;;5087256;28;20118;-69
2022/09/17 07:07:56;;;;;;;5.80;1.57;;;14.90;99.90;;;;;;5082394;28;20058;-69
2022/09/17 07:10:22;;;;;;;7.82;1.60;;;14.60;99.90;;;;;;5085641;28;20298;-69
2022/09/17 07:12:48;;;;;;;7.88;1.65;;;14.40;99.90;;;;;;5086622;28;20147;-69
2022/09/17 07:15:14;;;;;;;7.68;1.45;;;14.30;99.90;;;;;;5072615;28;20074;-69
2022/09/17 07:17:41;;;;;;;7.28;1.73;;;13.80;99.90;;;;;;5083238;28;20055;-69
2022/09/17 07:20:08;;;;;;;8.20;1.97;;;13.40;99.90;;;;;;5085766;28;20036;-69
2022/09/17 07:22:34;;;;;;;7.50;1.77;;;13.00;99.90;;;;;;5087317;28;20052;-68
2022/09/17 07:24:59;;;;;;;7.20;1.55;;;12.90;99.90;;;;;;5062144;28;20051;-68
2022/09/17 07:27:29;;;;;;;8.23;1.80;;;12.90;99.90;;;;;;5082353;28;20064;-69
2022/09/17 07:29:55;;;;;;;12.95;1.83;;;12.80;99.90;;;;;;5064639;28;20472;-68
2022/09/17 07:32:21;;;;;;;9.73;1.95;;;13.00;99.90;;;;;;5079625;28;20071;-69
2022/09/17 07:34:51;;;;;;;9.40;1.77;;;13.00;99.90;;;;;;5080564;28;20055;-72
2022/09/17 07:37:17;;;;;;;8.20;1.80;;;13.20;99.90;;;;;;5079646;28;20044;-69
2022/09/17 07:39:43;;;;;;;8.77;1.85;;;13.30;99.90;;;;;;5085299;28;20050;-69
2022/09/17 07:42:09;;;;;;;8.07;1.40;;;13.40;99.90;;;;;;5085085;28;20040;-69
2022/09/17 07:44:35;;;;;;;5.18;1.27;;;13.40;99.90;;;;;;5082610;28;20133;-70
2022/09/17 07:47:01;;;;;;;5.97;1.50;;;13.50;99.90;;;;;;5086613;28;20494;-69
2022/09/17 07:49:26;;;;;;;6.78;1.63;;;13.80;99.90;;;;;;5081155;28;20047;-70
2022/09/17 07:51:53;;;;;;;4.80;1.23;;;13.80;99.90;;;;;;5084950;28;20045;-68
2022/09/17 07:54:19;;;;;;;7.32;1.70;;;13.90;99.90;;;;;;5085791;28;20151;-69
2022/09/17 07:56:45;;;;;;;6.97;1.23;;;13.90;99.90;;;;;;5082730;28;20036;-69
2022/09/17 07:59:11;;;;;;;8.40;1.70;;;14.00;99.90;;;;;;5070902;28;20089;-69
2022/09/17 08:01:37;;;;;;;8.43;1.40;;;14.20;99.90;;;;;;5084721;28;20485;-69
2022/09/17 08:04:03;;;;;;;4.75;1.02;;;14.30;99.90;;;;;;5085305;28;20048;-70
2022/09/17 08:06:29;;;;;;;5.68;1.27;;;14.20;99.90;;;;;;5083510;28;20872;-70
2022/09/17 08:08:56;;;;;;;9.27;1.42;;;14.50;99.90;;;;;;5083683;28;20071;-70
2022/09/17 08:11:26;;;;;;;6.43;1.02;;;14.60;99.90;;;;;;5084792;28;20064;-68
2022/09/17 08:13:53;;;;;;;6.07;1.20;;;14.70;99.90;;;;;;5084839;28;20120;-68
2022/09/17 08:16:20;;;;;;;4.65;1.15;;;14.70;99.90;;;;;;5082054;28;20048;-69
2022/09/17 08:18:46;;;;;;;4.15;0.93;;;14.40;99.90;;;;;;5085512;28;20044;-69
2022/09/17 08:21:14;;;;;;;4.00;0.90;;;14.50;99.90;;;;;;5067072;28;20149;-68
2022/09/17 08:23:41;;;;;;;4.03;1.00;;;14.40;99.90;;;;;;5084486;28;20032;-68
2022/09/17 08:26:12;;;;;;;4.07;1.08;;;14.70;99.90;;;;;;5082385;28;20406;-70
2022/09/17 08:28:38;;;;;;;4.45;0.80;;;15.10;99.90;;;;;;5068445;28;20387;-70
2022/09/17 08:31:07;;;;;;;5.75;1.23;;;15.30;99.90;;;;;;5082163;28;20062;-67
2022/09/17 08:33:38;;;;;;;2.35;0.90;;;15.10;99.90;;;;;;5080936;28;20037;-70
2022/09/17 08:36:05;;;;;;;5.88;0.85;;;14.70;99.90;;;;;;5082170;28;20418;-72
2022/09/17 08:38:33;;;;;;;4.13;1.05;;;14.40;99.90;;;;;;5084441;28;20159;-70
2022/09/17 08:41:04;;;;;;;4.53;1.05;;;14.00;99.90;;;;;;5084719;28;20105;-68
2022/09/17 08:43:35;;;;;;;5.18;0.88;;;13.90;99.90;;;;;;5070435;28;20044;-68
2022/09/17 08:46:00;;;;;;;4.82;1.00;;;13.80;99.90;;;;;;5063392;28;20079;-69
2022/09/17 08:48:34;;;;;;;6.05;1.35;;;13.90;99.90;;;;;;5081748;28;20059;-69
2022/09/17 08:51:05;;;;;;;6.43;1.20;;;14.00;99.90;;;;;;5083353;28;20050;-68
2022/09/17 08:53:44;;;;;;;5.00;0.90;;;14.10;99.90;;;;;;5084855;28;20044;-68
2022/09/17 08:56:15;;;;;;;3.22;0.75;;;14.10;99.90;;;;;;5081493;28;20119;-68
2022/09/17 08:59:04;;;;;;;4.38;1.00;;;14.30;99.90;;;;;;5069400;28;20109;-67
2022/09/17 09:01:44;;;;;;;2.83;0.88;;;14.30;99.90;;;;;;5081977;28;20036;-68
2022/09/17 09:04:30;;;;;;;6.13;1.10;;;14.30;99.90;;;;;;5080716;28;20115;-68
2022/09/17 09:07:06;;;;;;;3.72;1.00;;;14.10;99.90;;;;;;5081976;28;20382;-69
2022/09/17 09:09:48;;;;;;;3.30;0.60;;;14.10;99.90;;;;;;5084659;28;20048;-68
2022/09/17 09:12:24;;;;;;;4.05;0.73;;;14.40;99.90;;;;;;5082140;28;20486;-68
2022/09/17 09:15:02;;;;;;;3.72;0.70;;;14.40;99.90;;;;;;5086396;28;20139;-70
2022/09/17 09:17:35;;;;;;;2.70;0.63;;;14.60;99.90;;;;;;5088495;28;20049;-67
2022/09/17 09:20:01;;;;;;;2.50;0.60;;;14.70;99.90;;;;;;5088484;28;20453;-68
2022/09/17 09:22:46;;;;;;;2.65;0.60;;;14.70;99.90;;;;;;5066442;28;20055;-68
2022/09/17 09:25:15;;;;;;;3.33;0.60;;;14.60;99.90;;;;;;5082079;28;20038;-68
2022/09/17 09:28:26;;;;;;;4.45;0.93;;;14.40;99.90;;;;;;5067233;28;20047;-67
2022/09/17 09:31:00;;;;;;;9.10;0.88;;;14.30;99.90;;;;;;5084821;28;20126;-67
2022/09/17 09:33:30;;;;;;;4.30;0.80;;;13.90;99.90;;;;;;5084772;28;20883;-70
2022/09/17 09:35:56;;;;;;;4.10;0.80;;;14.00;99.90;;;;;;5076343;28;20072;-68
2022/09/17 09:38:37;;;;;;;3.83;0.88;;;14.20;99.90;;;;;;5081411;28;20196;-67
2022/09/17 09:41:12;;;;;;;4.20;0.98;;;14.20;99.90;;;;;;5080460;28;20040;-67
2022/09/17 09:43:50;;;;;;;2.10;0.60;;;14.40;99.90;;;;;;5084831;28;20130;-68
2022/09/17 09:46:22;;;;;;;4.43;0.73;;;14.40;99.90;;;;;;5060712;28;20032;-70
2022/09/17 09:49:06;;;;;;;3.03;0.63;;;14.70;99.90;;;;;;5086075;28;20088;-72
2022/09/17 09:51:49;;;;;;;3.85;1.17;;;15.00;99.90;;;;;;5086777;28;20463;-70
2022/09/17 09:54:45;;;;;;;3.70;0.75;;;15.30;99.90;;;;;;5085868;28;20076;-70
2022/09/17 09:57:17;;;;;;;5.28;0.90;;;15.40;99.90;;;;;;5086509;28;20395;-69
2022/09/17 09:59:42;;;;;;;4.25;0.70;;;15.50;99.90;;;;;;5085295;28;20062;-70
2022/09/17 10:02:09;;;;;;;2.45;0.70;;;15.70;99.90;;;;;;5066334;28;20044;-69
2022/09/17 10:04:35;;;;;;;3.80;0.60;;;15.90;99.90;;;;;;5085825;28;20051;-71
2022/09/17 10:07:08;;;;;;;5.68;0.98;;;16.40;99.90;;;;;;5082223;28;20443;-72
2022/09/17 10:09:37;;;;;;;4.32;1.00;;;16.20;99.90;;;;;;5068840;28;20044;-70
2022/09/17 10:12:09;;;;;;;5.18;0.90;;;15.80;99.90;;;;;;5085158;28;20102;-69
2022/09/17 10:14:37;;;;;;;3.13;0.90;;;15.70;99.90;;;;;;5069283;28;20898;-69
2022/09/17 10:17:25;;;;;;;4.32;0.93;;;15.20;99.90;;;;;;5084638;28;20044;-69
2022/09/17 10:20:10;;;;;;;3.30;0.82;;;15.00;99.90;;;;;;5066778;28;20378;-68
2022/09/17 10:22:44;;;;;;;3.72;0.70;;;14.90;99.90;;;;;;5087484;28;20048;-69
2022/09/17 10:25:32;;;;;;;4.70;1.10;;;14.90;99.90;;;;;;5084180;28;20062;-69
2022/09/17 10:28:02;;;;;;;3.90;0.90;;;15.30;99.90;;;;;;5087767;28;20184;-69
2022/09/17 10:30:29;;;;;;;4.93;1.10;;;15.50;99.90;;;;;;5084728;28;20455;-69
2022/09/17 10:33:18;;;;;;;3.93;0.83;;;15.40;99.90;;;;;;5085164;28;20093;-70
2022/09/17 10:35:57;;;;;;;1.90;0.70;;;15.30;99.90;;;;;;5082689;28;20479;-69
2022/09/17 10:38:31;;;;;;;2.50;1.10;;;15.00;99.90;;;;;;5086381;28;20047;-68
2022/09/17 10:41:18;;;;;;;3.88;0.90;;;14.70;99.90;;;;;;5085561;28;20055;-68
2022/09/17 10:43:44;;;;;;;3.47;0.70;;;14.50;99.90;;;;;;5088227;28;20036;-69
2022/09/17 10:46:16;;;;;;;3.47;0.75;;;14.50;99.90;;;;;;5079406;28;20048;-68
2022/09/17 10:49:21;;;;;;;2.88;0.82;;;14.60;99.90;;;;;;5082804;28;20175;-68
2022/09/17 10:51:47;;;;;;;3.63;0.80;;;14.90;99.90;;;;;;5086998;28;20040;-68
2022/09/17 10:54:25;;;;;;;3.97;1.08;;;15.00;99.90;;;;;;5087822;28;20448;-67
2022/09/17 10:56:56;;;;;;;4.72;0.90;;;15.10;99.90;;;;;;5070242;28;20425;-69
2022/09/17 10:59:21;;;;;;;4.47;1.10;;;15.30;99.90;;;;;;5089377;28;20672;-71
2022/09/17 11:02:00;;;;;;;5.35;1.17;;;15.60;99.90;;;;;;5083470;28;20040;-70
2022/09/17 11:04:37;;;;;;;5.50;1.00;;;15.70;99.90;;;;;;5084746;28;20065;-69
2022/09/17 11:07:03;;;;;;;4.65;1.02;;;15.80;99.90;;;;;;5085524;28;20067;-68
2022/09/17 11:09:46;;;;;;;5.85;1.25;;;15.90;99.90;;;;;;5088341;28;20048;-71
2022/09/17 11:12:28;;;;;;;5.68;1.20;;;15.80;99.90;;;;;;5086989;28;20041;-69
2022/09/17 11:15:27;;;;;;;5.43;1.33;;;16.00;99.90;;;;;;5087996;28;20119;-69
2022/09/17 11:18:26;;;;;;;4.82;1.15;;;16.00;99.90;;;;;;5077576;28;20461;-69
2022/09/17 11:21:27;;;;;;;5.35;1.33;;;16.10;99.90;;;;;;5082633;28;20402;-69
2022/09/17 11:24:20;;;;;;;5.38;1.00;;;16.20;99.90;;;;;;5086264;28;20074;-68
2022/09/17 11:27:03;;;;;;;3.42;0.90;;;16.40;99.90;;;;;;5070766;28;20040;-70
2022/09/17 11:30:07;;;;;;;5.28;1.20;;;16.30;99.90;;;;;;5084412;28;20069;-68
2022/09/17 11:33:26;;;;;;;4.03;0.85;;;16.40;99.90;;;;;;5084489;28;20043;-69
2022/09/17 11:36:01;;;;;;;7.45;1.42;;;16.70;99.90;;;;;;5023554;28;20069;-69
2022/09/17 11:38:42;;;;;;;7.32;1.05;;;16.60;99.90;;;;;;5021792;28;20163;-69
2022/09/17 11:41:15;;;;;;;3.90;1.20;;;16.80;99.90;;;;;;5025417;28;20362;-70
2022/09/17 11:43:59;;;;;;;4.53;0.98;;;17.20;99.90;;;;;;5019316;28;20094;-69
2022/09/17 11:46:42;;;;;;;3.65;0.80;;;17.50;99.90;;;;;;5025237;28;20077;-69
2022/09/17 11:49:25;;;;;;;5.43;1.45;;;;;;;;;;5020622;28;20041;-68
2022/09/17 11:52:02;;;;;;;13.57;2.35;;;14.00;99.90;;;;;;5027232;28;20055;-71
2022/09/17 11:54:34;;;;;;;9.38;2.00;;;12.10;99.90;;;;;;5022611;28;20132;-70
2022/09/17 11:57:14;;;;;;;7.38;1.83;;;11.40;99.90;;;;;;5024946;28;20527;-70
2022/09/17 12:00:07;;;;;;;8.00;1.50;;;10.80;99.90;;;;;;5023709;28;20049;-71
2022/09/17 12:02:53;;;;;;;6.97;1.42;;;10.80;99.90;;;;;;5001593;28;20057;-71
2022/09/17 12:05:30;;;;;;;7.95;1.13;;;10.70;99.90;;;;;;5024138;28;20037;-71
2022/09/17 12:08:03;;;;;;;4.10;0.80;;;10.70;99.90;;;;;;5024686;28;20073;-70
2022/09/17 12:10:52;;;;;;;4.35;0.93;;;10.70;99.90;;;;;;5072150;28;20094;-68
2022/09/17 12:13:41;;;;;;;5.10;0.95;;;10.80;99.90;;;;;;5086490;28;20044;-68
2022/09/17 12:16:26;;;;;;;4.53;0.80;;;10.90;99.90;;;;;;5084780;28;20356;-68
2022/09/17 12:19:10;;;;;;;2.35;0.70;;;11.10;99.90;;;;;;5085862;28;20119;-69
2022/09/17 12:21:41;;;;;;;4.32;1.23;;;11.50;99.90;;;;;;5085892;28;20055;-67
2022/09/17 12:24:17;;;;;;;9.02;1.15;;;11.70;99.90;;;;;;5082154;28;20667;-67
2022/09/17 12:27:08;;;;;;;4.55;1.10;;;12.00;99.90;;;;;;5062977;28;20047;-67
2022/09/17 12:29:36;;;;;;;4.53;1.08;;;12.20;99.90;;;;;;5079395;28;20041;-67
2022/09/17 12:32:27;;;;;;;5.38;1.02;;;12.10;99.90;;;;;;5075976;28;20050;-67
2022/09/17 12:35:04;;;;;;;6.60;1.30;;;12.10;99.90;;;;;;5082616;28;20048;-66
2022/09/17 12:37:53;;;;;;;3.50;0.95;;;12.10;99.90;;;;;;5086225;28;20040;-67
2022/09/17 12:40:54;;;;;;;6.00;1.60;;;12.30;99.90;;;;;;5076054;28;20047;-67
2022/09/17 12:43:40;;;;;;;5.78;1.13;;;12.40;99.90;;;;;;5084823;28;20047;-66
2022/09/17 12:46:30;;;;;;;6.57;1.70;;;12.40;99.90;;;;;;5081150;28;20119;-67
2022/09/17 12:49:23;;;;;;;9.38;2.03;;;12.50;99.90;;;;;;5080823;28;20040;-69
2022/09/17 12:51:57;;;;;;;8.32;1.42;;;12.50;99.90;;;;;;5072625;28;20518;-68
2022/09/17 12:54:34;;;;;;;10.00;1.48;;;12.50;99.90;;;;;;5083189;28;20132;-67
2022/09/17 12:57:25;;;;;;;9.15;1.55;;;12.90;99.90;;;;;;5079296;28;20691;-68
2022/09/17 13:00:03;;;;;;;7.60;1.67;;;12.90;99.90;;;;;;5088224;28;20059;-68
2022/09/17 13:02:34;;;;;;;11.70;1.85;;;13.10;99.90;;;;;;5092153;28;20043;-66
2022/09/17 13:05:11;;;;;;;8.43;1.70;;;13.30;99.90;;;;;;5095279;28;20445;-67
2022/09/17 13:08:07;;;;;;;7.25;1.67;;;13.40;99.90;;;;;;5096376;28;20047;-68
2022/09/17 13:11:08;;;;;;;8.00;1.85;;;13.50;99.90;;;;;;5087900;28;20371;-67
2022/09/17 13:13:33;;;;;;;8.85;1.65;;;13.70;99.90;;;;;;5070504;28;20094;-67
2022/09/17 13:16:23;;;;;;;8.75;1.70;;;13.80;99.90;;;;;;5093838;28;20079;-67
2022/09/17 13:19:30;;;;;;;13.68;2.10;;;14.00;99.90;;;;;;5095021;28;20105;-67
2022/09/17 13:22:29;;;;;;;13.38;2.80;;;14.20;99.90;;;;;;5069619;28;20416;-67
2022/09/17 13:25:11;;;;;;;11.20;1.80;;;14.40;99.90;;;;;;5034475;28;20503;-67
2022/09/17 13:27:38;;;;;;;13.30;2.22;;;14.60;99.90;;;;;;5093774;28;20500;-67
2022/09/17 13:30:09;;;;;;;12.70;1.77;;;14.40;99.90;;;;;;5093194;28;20044;-67
2022/09/17 13:32:35;;;;;;;11.50;2.60;;;14.20;99.90;;;;;;5094136;28;20032;-67
2022/09/17 13:35:13;;;;;;;12.27;2.17;;;14.00;99.90;;;;;;5094033;28;20169;-67
2022/09/17 13:37:55;;;;;;;7.20;1.60;;;13.70;99.90;;;;;;5094784;28;20052;-67
2022/09/17 13:40:35;;;;;;;5.43;1.70;;;13.60;99.90;;;;;;5093304;28;20153;-67
2022/09/17 13:43:06;;;;;;;7.40;1.33;;;13.40;99.90;;;;;;5092849;28;20548;-67
2022/09/17 13:45:33;;;;;;;10.30;1.70;;;13.40;99.90;;;;;;5091178;28;20040;-67
2022/09/17 13:48:08;;;;;;;7.70;1.67;;;13.60;99.90;;;;;;5092341;28;20050;-67
2022/09/17 13:50:40;;;;;;;9.18;1.90;;;13.80;99.90;;;;;;5092678;28;20032;-68
2022/09/17 13:53:15;;;;;;;10.73;2.00;;;14.00;99.90;;;;;;5093320;28;20043;-67
2022/09/17 13:55:42;;;;;;;10.32;2.20;;;14.30;99.90;;;;;;5087987;28;20032;-68
2022/09/17 13:58:17;;;;;;;14.95;2.17;;;14.40;99.90;;;;;;5060250;28;20048;-67
2022/09/17 14:01:06;;;;;;;16.00;2.83;;;14.60;99.90;;;;;;5091932;28;20044;-67
2022/09/17 14:03:43;;;;;;;14.82;2.45;;;14.90;99.90;;;;;;5094262;28;20082;-67
2022/09/17 14:06:09;;;;;;;17.27;2.22;;;15.10;99.90;;;;;;5095025;28;20052;-68
2022/09/17 14:08:45;;;;;;;14.70;2.85;;;15.30;99.90;;;;;;5094761;28;20587;-67
2022/09/17 14:11:24;;;;;;;12.32;2.08;;;15.50;99.90;;;;;;5092487;28;20052;-69
2022/09/17 14:13:51;;;;;;;12.40;2.10;;;15.40;99.90;;;;;;5094302;28;20079;-68
2022/09/17 14:16:39;;;;;;;12.10;2.10;;;15.40;99.90;;;;;;5094778;28;20138;-67
2022/09/17 14:19:26;;;;;;;15.07;2.25;;;15.50;99.90;;;;;;5094012;28;20105;-68
2022/09/17 14:21:59;;;;;;;10.93;2.38;;;15.60;99.90;;;;;;5089552;28;20083;-67
2022/09/17 14:24:45;;;;;;;12.80;2.20;;;15.70;99.90;;;;;;5091029;28;20394;-67
2022/09/17 14:27:32;;;;;;;13.27;2.17;;;15.80;99.90;;;;;;5088722;28;20047;-71
2022/09/17 14:30:03;;;;;;;11.95;2.20;;;15.50;99.90;;;;;;5086811;28;20087;-69
2022/09/17 14:32:38;;;;;;;10.88;3.25;;;15.80;99.90;;;;;;5067347;28;20162;-69
2022/09/17 14:35:36;;;;;;;9.38;1.80;;;15.80;99.90;;;;;;5071888;28;20078;-69
2022/09/17 14:38:20;;;;;;;6.50;1.50;;;15.80;99.90;;;;;;5072258;28;20047;-70
2022/09/17 14:41:03;;;;;;;5.65;1.85;;;15.10;99.90;;;;;;5090988;28;20115;-70
2022/09/17 14:43:39;;;;;;;11.55;2.25;;;14.20;99.90;;;;;;5066196;28;20066;-69
2022/09/17 14:46:08;;;;;;;7.70;1.58;;;13.90;99.90;;;;;;5091209;28;20044;-69
2022/09/17 14:48:35;;;;;;;9.65;2.35;;;13.90;99.90;;;;;;5092506;28;20386;-70
2022/09/17 14:51:30;;;;;;;7.63;1.77;;;14.10;99.90;;;;;;5091259;28;20425;-70
2022/09/17 14:54:13;;;;;;;5.53;1.45;;;14.10;99.90;;;;;;5065315;28;20303;-69
2022/09/17 14:56:56;;;;;;;8.38;1.40;;;14.00;99.90;;;;;;5085353;28;20097;-70
2022/09/17 14:59:33;;;;;;;8.70;1.50;;;14.00;99.90;;;;;;5087827;28;20045;-69